NCAR-RAP Real-Time Weather Data

Output produced by METARs form (12 May 2021  11:05 UTC)
found at http://weather.rap.ucar.edu/surface/
 
KEWR 121051Z 27009G15KT 10SM FEW095 SCT130 SCT250 09/M02 A3016 RMK AO2 SLP213 T00941017
KEWR 120951Z 25008KT 10SM FEW095 SCT130 SCT250 08/M02 A3013 RMK AO2 SLP202 T00831022
KEWR 120851Z 30008KT 10SM FEW210 SCT250 09/M02 A3012 RMK AO2 SLP200 T00891017 53001
KEWR 120751Z 31014G20KT 10SM FEW210 SCT250 09/M02 A3011 RMK AO2 SLP197 T00941022
KEWR 120651Z 31015G20KT 10SM BKN200 BKN250 11/M03 A3012 RMK AO2 PK WND 32026/0629 SLP199 T01061028
KEWR 120551Z 32019G28KT 10SM BKN210 BKN250 11/M03 A3012 RMK AO2 PK WND 32028/0544 SLP199 T01111033 10167 20111 51013
KEWR 120451Z 31013KT 10SM FEW110 BKN210 BKN250 12/M04 A3012 RMK AO2 SLP197 T01221039 402110100
KEWR 120351Z 31008KT 10SM FEW065 SCT090 SCT120 BKN250 13/M02 A3010 RMK AO2 SLP193 T01281022
KEWR 120251Z 31012G17KT 10SM SCT065 BKN080 BKN120 BKN250 14/M02 A3008 RMK AO2 SLP186 T01391017 51022
KEWR 120151Z 29009KT 10SM SCT065 BKN085 BKN110 BKN250 14/01 A3007 RMK AO2 SLP182 VCSH S-SW T01440011
KEWR 120051Z 30008KT 10SM FEW070 BKN110 BKN250 14/01 A3004 RMK AO2 SLP170 T01440011
KEWR 112351Z 30011KT 10SM FEW060 BKN075 BKN100 17/01 A3002 RMK AO2 SLP164 VCSH S-SW T01670011 10211 20167 51014
KEWR 112251Z 30013G21KT 10SM FEW060 SCT075 BKN090 17/01 A3000 RMK AO2 WSHFT 2138 SLP159 T01720006
KEWR 112158Z 29016G23KT 10SM FEW050 BKN075 BKN090 18/00 A3000 RMK AO2 WSHFT 2138 VCSH T01780000
KEWR 112151Z 31013KT 10SM FEW050 BKN075 BKN090 18/M01 A3000 RMK AO2 WSHFT 2136 SLP156 VCSH T01781006
KEWR 112051Z 29016G19KT 10SM FEW060 BKN090 BKN110 19/M01 A2998 RMK AO2 PK WND 26027/1955 SLP150 VCSH SW T01941011 56006
KEWR 111951Z 27013G26KT 10SM BKN090 OVC110 19/M02 A2998 RMK AO2 PK WND 26026/1942 SLP150 VCSH W T01941022